createdAt,value
2018-07-13T00:01:28.040Z,99748.96
2018-07-13T00:03:03.659Z,99750.48
2018-07-13T00:04:39.288Z,99752.01
2018-07-13T00:06:14.888Z,99750.85
2018-07-13T00:07:50.470Z,99749.06
2018-07-13T00:09:26.070Z,99750.56
2018-07-13T00:11:02.055Z,99754.55
2018-07-13T00:12:37.809Z,99757.14
2018-07-13T00:14:18.434Z,99759.50
2018-07-13T00:16:01.248Z,99756.95
2018-07-13T00:17:36.882Z,99759.67
2018-07-13T00:19:12.875Z,99762.45
2018-07-13T00:20:49.093Z,99759.48
2018-07-13T00:22:24.673Z,99757.80
2018-07-13T00:24:00.279Z,99760.16
2018-07-13T00:25:35.899Z,99761.97
2018-07-13T00:27:11.755Z,99759.80
2018-07-13T00:28:47.354Z,99756.63
2018-07-13T00:30:22.963Z,99760.71
2018-07-13T00:31:58.564Z,99756.33
2018-07-13T00:33:34.221Z,99756.33
2018-07-13T00:35:10.132Z,99755.78
2018-07-13T00:36:45.769Z,99756.30
2018-07-13T00:38:21.340Z,99756.43
2018-07-13T00:39:56.988Z,99753.45
2018-07-13T00:41:32.579Z,99756.00
2018-07-13T00:43:08.179Z,99760.73
2018-07-13T00:44:43.756Z,99759.17
2018-07-13T00:46:19.493Z,99755.05
2018-07-13T00:47:55.140Z,99751.59
2018-07-13T00:49:30.752Z,99753.25
2018-07-13T00:51:06.364Z,99757.44
2018-07-13T00:52:41.953Z,99762.27
2018-07-13T00:54:17.824Z,99758.56
2018-07-13T00:55:53.467Z,99767.53
2018-07-13T00:57:29.088Z,99762.14
2018-07-13T00:59:04.761Z,99767.32
2018-07-13T01:00:40.728Z,99769.90
2018-07-13T01:02:16.345Z,99768.73
2018-07-13T01:03:51.990Z,99766.80
2018-07-13T01:05:28.039Z,99770.09
2018-07-13T01:07:03.693Z,99769.72
2018-07-13T01:08:39.316Z,99769.72
2018-07-13T01:10:14.944Z,99771.97
2018-07-13T01:11:50.620Z,99766.13
2018-07-13T01:13:26.248Z,99774.29
2018-07-13T01:15:01.813Z,99768.97
2018-07-13T01:16:38.039Z,99770.52
2018-07-13T01:18:13.975Z,99763.20
2018-07-13T01:19:49.605Z,99771.06
2018-07-13T01:21:25.201Z,99770.66
2018-07-13T01:23:00.806Z,99771.44
2018-07-13T01:24:36.419Z,99768.36
2018-07-13T01:26:12.012Z,99771.77
2018-07-13T01:27:47.909Z,99769.48
2018-07-13T01:29:23.518Z,99778.76
2018-07-13T01:30:59.094Z,99776.74
2018-07-13T01:32:34.738Z,99773.88
2018-07-13T01:34:10.374Z,99775.00
2018-07-13T01:35:46.022Z,99777.23
2018-07-13T01:37:21.602Z,99775.81
2018-07-13T01:38:57.193Z,99776.87
2018-07-13T01:40:32.810Z,99779.58
2018-07-13T01:42:08.443Z,99773.22
2018-07-13T01:43:44.039Z,99775.18
2018-07-13T01:45:20.070Z,99774.13
2018-07-13T01:46:55.689Z,99770.88
2018-07-13T01:48:31.280Z,99780.90
2018-07-13T01:50:07.193Z,99777.83
2018-07-13T01:51:42.799Z,99781.38
2018-07-13T01:53:18.424Z,99781.80
2018-07-13T01:54:54.166Z,99785.36
2018-07-13T01:56:30.037Z,99782.06
2018-07-13T01:58:05.723Z,99779.30
2018-07-13T01:59:41.321Z,99778.02
2018-07-13T02:01:16.929Z,99781.16
2018-07-13T02:02:52.562Z,99789.38
2018-07-13T02:04:28.148Z,99787.72
2018-07-13T02:06:04.027Z,99782.05
2018-07-13T02:07:39.673Z,99788.83
2018-07-13T02:09:15.252Z,99788.31
2018-07-13T02:10:50.872Z,99789.14
2018-07-13T02:12:26.492Z,99788.52
2018-07-13T02:14:02.091Z,99789.98
2018-07-13T02:15:37.681Z,99790.83
2018-07-13T02:17:13.308Z,99796.39
2018-07-13T02:18:48.917Z,99789.41
2018-07-13T02:20:24.509Z,99792.42
2018-07-13T02:22:00.107Z,99795.70
2018-07-13T02:23:35.764Z,99794.01
2018-07-13T02:25:11.421Z,99796.41
2018-07-13T02:26:47.055Z,99798.09
2018-07-13T02:28:22.663Z,99798.14
2018-07-13T02:29:58.621Z,99801.48
2018-07-13T02:31:38.189Z,99799.95
2018-07-13T02:33:13.787Z,99796.86
2018-07-13T02:34:49.435Z,99803.05
2018-07-13T02:36:25.010Z,99807.47
2018-07-13T02:38:00.614Z,99804.15
2018-07-13T02:39:36.285Z,99810.58
2018-07-13T02:41:11.987Z,99809.37
2018-07-13T02:42:47.536Z,99809.81
2018-07-13T02:44:23.179Z,99808.08
2018-07-13T02:45:58.795Z,99810.84
2018-07-13T02:47:34.385Z,99807.47
2018-07-13T02:49:10.048Z,99810.41
2018-07-13T02:50:45.636Z,99811.73
2018-07-13T02:52:21.229Z,99809.70
2018-07-13T02:53:56.816Z,99813.20
2018-07-13T02:55:32.406Z,99815.00
2018-07-13T02:57:08.030Z,99818.02
2018-07-13T02:58:43.694Z,99819.59
2018-07-13T03:00:19.285Z,99822.16
2018-07-13T03:01:54.877Z,99822.90
2018-07-13T03:03:30.517Z,99822.90
2018-07-13T03:05:06.235Z,99824.66
2018-07-13T03:06:41.837Z,99829.73
2018-07-13T03:08:17.854Z,99831.91
2018-07-13T03:09:53.470Z,99830.92
2018-07-13T03:11:29.289Z,99834.78
2018-07-13T03:13:04.884Z,99839.14
2018-07-13T03:14:40.515Z,99842.61
2018-07-13T03:16:16.370Z,99850.91
2018-07-13T03:17:51.973Z,99842.97
2018-07-13T03:19:27.621Z,99844.66
2018-07-13T03:21:03.257Z,99848.27
2018-07-13T03:22:38.809Z,99851.88
2018-07-13T03:24:14.829Z,99849.73
2018-07-13T03:25:50.403Z,99855.77
2018-07-13T03:27:26.090Z,99857.45
2018-07-13T03:29:01.668Z,99854.04
2018-07-13T03:30:37.340Z,99858.34
2018-07-13T03:32:12.945Z,99857.95
2018-07-13T03:33:48.634Z,99861.07
2018-07-13T03:35:24.245Z,99862.47
2018-07-13T03:37:00.254Z,99866.81
2018-07-13T03:38:35.881Z,99866.51
2018-07-13T03:40:11.470Z,99864.30
2018-07-13T03:41:47.114Z,99865.93
2018-07-13T03:43:22.728Z,99873.03
2018-07-13T03:44:58.349Z,99873.73
2018-07-13T03:46:33.978Z,99876.45
2018-07-13T03:48:09.577Z,99876.89
2018-07-13T03:49:45.175Z,99875.28
2018-07-13T03:51:20.804Z,99878.66
2018-07-13T03:52:56.397Z,99882.26
2018-07-13T03:54:33.112Z,99877.80
2018-07-13T03:56:08.992Z,99881.48
2018-07-13T03:57:45.020Z,99878.47
2018-07-13T03:59:21.287Z,99884.58
2018-07-13T04:00:56.917Z,99880.75
2018-07-13T04:02:32.536Z,99882.98
2018-07-13T04:04:08.129Z,99883.43
2018-07-13T04:05:43.718Z,99882.64
2018-07-13T04:07:19.341Z,99882.34
2018-07-13T04:08:56.104Z,99883.41
2018-07-13T04:10:31.939Z,99882.30
2018-07-13T04:12:07.704Z,99880.66
2018-07-13T04:13:43.999Z,99882.05
2018-07-13T04:15:19.614Z,99886.39
2018-07-13T04:16:55.230Z,99879.94
2018-07-13T04:18:30.841Z,99887.41
2018-07-13T04:20:06.435Z,99885.42
2018-07-13T04:21:42.093Z,99878.51
2018-07-13T04:23:17.846Z,99874.48
2018-07-13T04:24:53.452Z,99877.47
2018-07-13T04:26:29.469Z,99877.02
2018-07-13T04:28:05.094Z,99876.91
2018-07-13T04:29:40.710Z,99870.24
2018-07-13T04:31:16.463Z,99872.88
2018-07-13T04:32:52.018Z,99874.02
2018-07-13T04:34:27.617Z,99870.44
2018-07-13T04:36:03.233Z,99868.50
2018-07-13T04:37:38.814Z,99867.39
2018-07-13T04:39:14.356Z,99867.31
2018-07-13T04:40:49.979Z,99858.45
2018-07-13T04:42:25.628Z,99855.54
2018-07-13T04:44:01.213Z,99856.61
2018-07-13T04:45:36.787Z,99857.97
2018-07-13T04:47:12.468Z,99861.25
2018-07-13T04:48:48.091Z,99856.33
2018-07-13T04:50:23.723Z,99865.14
2018-07-13T04:52:00.437Z,99862.92
2018-07-13T04:53:36.296Z,99859.31
2018-07-13T04:55:12.474Z,99855.31
2018-07-13T04:56:50.468Z,99861.91
2018-07-13T04:58:26.778Z,99859.68
2018-07-13T05:00:02.701Z,99860.83
2018-07-13T05:01:39.597Z,99855.91
2018-07-13T05:03:15.189Z,99860.38
2018-07-13T05:04:50.848Z,99858.45
2018-07-13T05:06:27.772Z,99869.91
2018-07-13T05:08:03.625Z,99868.78
2018-07-13T05:09:39.259Z,99815.88
2018-07-13T05:11:15.056Z,99875.98
2018-07-13T05:12:50.724Z,99873.97
2018-07-13T05:14:26.357Z,99875.34
2018-07-13T05:16:01.953Z,99875.16
2018-07-13T05:17:37.602Z,99874.52
2018-07-13T05:19:13.180Z,99877.67
2018-07-13T05:20:48.925Z,99878.33
2018-07-13T05:22:24.506Z,99865.98
2018-07-13T05:24:00.132Z,99871.63
2018-07-13T05:25:35.803Z,99868.80
2018-07-13T05:27:11.472Z,99873.96
2018-07-13T05:28:47.112Z,99878.80
2018-07-13T05:30:22.967Z,99879.61
2018-07-13T05:31:58.567Z,99873.93
2018-07-13T05:33:34.542Z,99873.61
2018-07-13T05:35:10.571Z,99873.09
2018-07-13T05:36:46.197Z,99876.94
2018-07-13T05:38:21.943Z,99871.63
2018-07-13T05:39:57.459Z,99876.30
2018-07-13T05:41:33.176Z,99874.92
2018-07-13T05:43:08.815Z,99871.93
2018-07-13T05:44:44.613Z,99868.64
2018-07-13T05:46:20.235Z,99877.30
2018-07-13T05:47:55.978Z,99872.65
2018-07-13T05:49:31.727Z,99871.98
2018-07-13T05:51:07.530Z,99877.19
2018-07-13T05:52:43.148Z,99880.66
2018-07-13T05:54:19.857Z,99881.88
2018-07-13T05:55:55.451Z,99882.70
2018-07-13T05:57:31.045Z,99885.50
2018-07-13T05:59:06.712Z,99885.77
2018-07-13T06:00:42.401Z,99881.92
2018-07-13T06:02:18.332Z,99888.47
2018-07-13T06:03:53.932Z,99886.95
2018-07-13T06:05:29.624Z,99888.95
2018-07-13T06:07:05.440Z,99881.59
2018-07-13T06:08:41.591Z,99886.27
2018-07-13T06:10:17.677Z,99883.80
2018-07-13T06:11:53.296Z,99886.46
2018-07-13T06:13:28.883Z,99884.80
2018-07-13T06:15:04.757Z,99883.08
2018-07-13T06:16:40.312Z,99887.29
2018-07-13T06:18:19.410Z,99888.11
2018-07-13T06:19:55.193Z,99887.93
2018-07-13T06:21:30.774Z,99891.95
2018-07-13T06:23:07.023Z,99891.38
2018-07-13T06:24:42.824Z,99890.00
2018-07-13T06:26:18.409Z,99887.27
2018-07-13T06:27:54.017Z,99884.15
2018-07-13T06:29:29.586Z,99888.03
2018-07-13T06:31:05.273Z,99889.34
2018-07-13T06:32:40.849Z,99894.42
2018-07-13T06:34:16.448Z,99882.94
2018-07-13T06:35:52.034Z,99882.98
2018-07-13T06:37:27.750Z,99890.78
2018-07-13T06:39:04.876Z,99886.65
2018-07-13T06:40:40.486Z,99881.27
2018-07-13T06:42:16.385Z,99882.20
2018-07-13T06:43:52.192Z,99884.27
2018-07-13T06:45:28.096Z,99890.38
2018-07-13T06:47:03.837Z,99882.27
2018-07-13T06:48:40.563Z,99885.08
2018-07-13T06:50:16.412Z,99879.58
2018-07-13T06:51:52.160Z,99884.75
2018-07-13T06:53:27.871Z,99886.06
2018-07-13T06:55:03.523Z,99885.14
2018-07-13T06:56:39.358Z,99890.17
2018-07-13T06:58:26.116Z,99890.92
2018-07-13T07:00:06.903Z,99891.16
2018-07-13T07:01:42.899Z,99895.59
2018-07-13T07:03:18.610Z,99891.57
2018-07-13T07:05:04.994Z,99895.11
2018-07-13T07:06:40.582Z,99887.41
2018-07-13T07:08:16.206Z,99891.45
2018-07-13T07:09:57.235Z,99894.50
2018-07-13T07:11:33.059Z,99898.16
2018-07-13T07:13:19.733Z,99903.42
2018-07-13T07:14:55.541Z,99908.78
2018-07-13T07:16:31.113Z,99908.59
2018-07-13T07:18:07.607Z,99902.40
2018-07-13T07:19:43.217Z,99916.19
2018-07-13T07:21:18.793Z,99913.55
2018-07-13T07:22:54.416Z,99913.79
2018-07-13T07:24:30.033Z,99914.78
2018-07-13T07:26:06.195Z,99916.47
2018-07-13T07:27:42.174Z,99911.61
2018-07-13T07:29:17.809Z,99911.57
2018-07-13T07:30:53.923Z,99912.41
2018-07-13T07:32:29.847Z,99906.48
2018-07-13T07:34:05.481Z,99909.81
2018-07-13T07:35:41.152Z,99908.21
2018-07-13T07:37:16.805Z,99910.27
2018-07-13T07:38:52.560Z,99858.83
2018-07-13T07:40:28.464Z,99909.45
2018-07-13T07:42:04.152Z,99905.78
2018-07-13T07:43:39.960Z,99906.75
2018-07-13T07:45:15.848Z,99908.41
2018-07-13T07:46:52.168Z,99901.72
2018-07-13T07:48:27.873Z,99895.77
2018-07-13T07:50:03.548Z,99897.08
2018-07-13T07:51:39.125Z,99898.45
2018-07-13T07:53:14.681Z,99897.11
2018-07-13T07:54:50.456Z,99888.77
2018-07-13T07:56:26.382Z,99897.91
2018-07-13T07:58:01.945Z,99901.36
2018-07-13T07:59:37.560Z,99893.31
2018-07-13T08:01:13.442Z,99897.33
2018-07-13T08:02:49.154Z,99901.12
2018-07-13T08:04:24.745Z,99899.92
2018-07-13T08:06:00.316Z,99895.98
2018-07-13T08:07:36.256Z,99894.57
2018-07-13T08:09:11.821Z,99893.48
2018-07-13T08:10:47.878Z,99891.80
2018-07-13T08:12:23.726Z,99888.27
2018-07-13T08:13:59.596Z,99893.83
2018-07-13T08:15:35.275Z,99895.55
2018-07-13T08:17:11.062Z,99895.52
2018-07-13T08:18:46.642Z,99897.78
2018-07-13T08:20:26.652Z,99897.92
2018-07-13T08:22:08.985Z,99901.95
2018-07-13T08:23:44.822Z,99891.98
2018-07-13T08:25:20.962Z,99891.34
2018-07-13T08:26:59.975Z,99889.95
2018-07-13T08:28:35.630Z,99896.73
2018-07-13T08:30:15.689Z,99902.86
2018-07-13T08:31:51.269Z,99894.17
2018-07-13T08:33:26.882Z,99890.48
2018-07-13T08:35:02.506Z,99894.81
2018-07-13T08:36:38.091Z,99891.38
2018-07-13T08:38:13.690Z,99895.84
2018-07-13T08:39:49.300Z,99896.83
2018-07-13T08:41:24.895Z,99899.61
2018-07-13T08:43:00.457Z,99886.37
2018-07-13T08:44:36.061Z,99893.36
2018-07-13T08:46:11.872Z,99888.48
2018-07-13T08:47:47.784Z,99885.24
2018-07-13T08:49:23.596Z,99882.98
2018-07-13T08:50:59.197Z,99888.33
2018-07-13T08:52:34.777Z,99887.66
2018-07-13T08:54:10.538Z,99899.36
2018-07-13T08:55:46.140Z,99894.05
2018-07-13T08:57:21.746Z,99893.46
2018-07-13T08:58:57.324Z,99887.41
2018-07-13T09:00:32.940Z,99897.53
2018-07-13T09:02:08.500Z,99891.80
2018-07-13T09:03:44.136Z,99890.25
2018-07-13T09:05:19.771Z,99892.91
2018-07-13T09:06:55.388Z,99899.90
2018-07-13T09:08:30.984Z,99888.63
2018-07-13T09:10:09.202Z,99894.67
2018-07-13T09:11:45.516Z,99888.83
2018-07-13T09:13:21.768Z,99891.30
2018-07-13T09:14:58.381Z,99892.42
2018-07-13T09:16:35.252Z,99888.27
2018-07-13T09:18:11.694Z,99889.75
2018-07-13T09:19:48.122Z,99893.86
2018-07-13T09:21:24.573Z,99889.81
2018-07-13T09:23:02.168Z,99890.75
2018-07-13T09:24:38.614Z,99889.13
2018-07-13T09:26:14.330Z,99889.75
2018-07-13T09:27:50.777Z,99890.19
2018-07-13T09:29:26.366Z,99894.47
2018-07-13T09:31:01.933Z,99887.13
2018-07-13T09:32:37.722Z,99887.06
2018-07-13T09:34:13.358Z,99879.16
2018-07-13T09:35:49.233Z,99885.78
2018-07-13T09:37:24.800Z,99882.33
2018-07-13T09:39:00.661Z,99888.13
2018-07-13T09:40:36.339Z,99889.66
2018-07-13T09:42:53.033Z,99876.81
2018-07-13T09:44:39.212Z,99888.19
2018-07-13T09:46:19.045Z,99891.14
2018-07-13T09:47:57.668Z,99889.33
2018-07-13T09:49:39.353Z,99885.36
2018-07-13T09:51:18.725Z,99886.98
2018-07-13T09:52:58.387Z,99880.64
2018-07-13T09:54:40.060Z,99881.63
2018-07-13T09:56:20.806Z,99885.08
2018-07-13T09:58:02.547Z,99879.98
2018-07-13T09:59:42.793Z,99881.33
2018-07-13T10:01:25.046Z,99878.11
2018-07-13T10:03:04.119Z,99881.07
2018-07-13T10:04:43.837Z,99871.97
2018-07-13T10:06:24.623Z,99874.92
2018-07-13T10:08:05.390Z,99879.56
2018-07-13T10:09:45.539Z,99878.25
2018-07-13T10:11:21.405Z,99879.56
2018-07-13T10:12:59.571Z,99877.58
2018-07-13T10:14:40.836Z,99880.59
2018-07-13T10:16:20.578Z,99875.00
2018-07-13T10:18:00.756Z,99860.06
2018-07-13T10:19:40.037Z,99861.53
2018-07-13T10:21:16.084Z,99873.14
2018-07-13T10:22:51.903Z,99868.55
2018-07-13T10:24:28.131Z,99862.54
2018-07-13T10:26:08.677Z,99861.16
2018-07-13T10:27:44.941Z,99864.52
2018-07-13T10:29:27.167Z,99869.44
2018-07-13T10:31:02.836Z,99869.91
2018-07-13T10:32:43.129Z,99874.86
2018-07-13T10:34:19.748Z,99879.69
2018-07-13T10:35:58.156Z,99866.75
2018-07-13T10:37:41.775Z,99865.79
2018-07-13T10:39:17.412Z,99869.31
2018-07-13T10:41:05.248Z,99849.77
2018-07-13T10:42:52.806Z,99857.86
2018-07-13T10:45:00.272Z,99861.32
2018-07-13T10:46:50.073Z,99857.91
2018-07-13T10:48:44.041Z,99864.01
2018-07-13T10:50:38.360Z,99859.29
2018-07-13T10:52:26.272Z,99859.44
2018-07-13T10:54:16.015Z,99856.25
2018-07-13T10:56:03.804Z,99855.13
2018-07-13T10:57:48.038Z,99858.16
2018-07-13T10:59:31.835Z,99850.93
2018-07-13T11:01:08.245Z,99849.25
2018-07-13T11:02:47.655Z,99849.70
2018-07-13T11:04:25.846Z,99842.97
2018-07-13T11:06:05.534Z,99846.39
2018-07-13T11:07:46.448Z,99840.05
2018-07-13T11:09:37.624Z,99849.59
2018-07-13T11:11:19.117Z,99844.38
2018-07-13T11:12:59.963Z,99856.00
2018-07-13T11:14:38.180Z,99846.16
2018-07-13T11:16:22.227Z,99840.77
2018-07-13T11:18:00.094Z,99831.78
2018-07-13T11:19:42.181Z,99832.27
2018-07-13T11:21:25.151Z,99834.81
2018-07-13T11:23:06.512Z,99830.30
2018-07-13T11:24:48.900Z,99836.23
2018-07-13T11:26:31.296Z,99822.33
2018-07-13T11:28:12.882Z,99819.42
2018-07-13T11:29:49.066Z,99816.00
2018-07-13T11:31:27.196Z,99818.37
2018-07-13T11:33:03.187Z,99822.52
2018-07-13T11:34:41.467Z,99821.84
2018-07-13T11:36:17.467Z,99819.88
2018-07-13T11:37:53.382Z,99814.78
2018-07-13T11:39:33.899Z,99822.47
2018-07-13T11:41:13.028Z,99816.42
2018-07-13T11:42:49.170Z,99817.41
2018-07-13T11:44:38.561Z,99812.77
2018-07-13T11:46:15.782Z,99819.40
2018-07-13T11:47:52.318Z,99827.20
2018-07-13T11:49:29.859Z,99811.72
2018-07-13T11:51:10.685Z,99808.27
2018-07-13T11:52:55.441Z,99813.03
2018-07-13T11:54:40.350Z,99807.72
2018-07-13T11:56:18.707Z,99807.59
2018-07-13T11:57:54.642Z,99802.54
2018-07-13T11:59:30.246Z,99800.86
2018-07-13T12:01:06.563Z,99796.73
2018-07-13T12:02:42.502Z,99797.55
2018-07-13T12:04:22.272Z,99795.58
2018-07-13T12:05:59.352Z,99792.78
2018-07-13T12:07:40.555Z,99798.36
2018-07-13T12:09:17.321Z,99791.85
2018-07-13T12:10:54.727Z,99794.23
2018-07-13T12:12:31.227Z,99786.36
2018-07-13T12:14:06.844Z,99783.45
2018-07-13T12:15:43.936Z,99780.01
2018-07-13T12:17:19.539Z,99780.43
2018-07-13T12:18:55.109Z,99783.32
2018-07-13T12:20:39.802Z,99781.44
2018-07-13T12:22:16.706Z,99786.03
2018-07-13T12:23:58.174Z,99808.23
2018-07-13T12:25:39.701Z,99783.55
2018-07-13T12:27:27.520Z,99787.59
2018-07-13T12:29:14.643Z,99773.59
2018-07-13T12:31:01.737Z,99783.12
2018-07-13T12:32:44.941Z,99771.43
2018-07-13T12:34:29.106Z,99775.34
2018-07-13T12:36:12.757Z,99769.41
2018-07-13T12:37:57.141Z,99779.06
2018-07-13T12:39:41.862Z,99773.58
2018-07-13T12:41:27.201Z,99769.84
2018-07-13T12:43:12.469Z,99768.60
2018-07-13T12:44:58.024Z,99768.19
2018-07-13T12:46:39.606Z,99777.63
2018-07-13T12:48:19.771Z,99759.16
2018-07-13T12:49:56.759Z,99765.16
2018-07-13T12:51:33.829Z,99769.44
2018-07-13T12:53:09.788Z,99773.70
2018-07-13T12:54:46.199Z,99768.63
2018-07-13T12:56:22.795Z,99773.79
2018-07-13T12:57:59.526Z,99774.41
2018-07-13T12:59:36.112Z,99765.09
2018-07-13T13:01:12.469Z,99767.48
2018-07-13T13:02:48.795Z,99768.31
2018-07-13T13:04:25.303Z,99772.34
2018-07-13T13:06:01.122Z,99767.00
2018-07-13T13:07:37.799Z,99768.56
2018-07-13T13:09:14.257Z,99769.92
2018-07-13T13:10:50.960Z,99766.66
2018-07-13T13:12:27.725Z,99768.53
2018-07-13T13:14:03.526Z,99770.27
2018-07-13T13:15:40.923Z,99760.32
2018-07-13T13:17:17.105Z,99763.22
2018-07-13T13:18:52.714Z,99765.80
2018-07-13T13:20:28.699Z,99763.01
2018-07-13T13:22:04.531Z,99756.66
2018-07-13T13:23:44.042Z,99749.69
2018-07-13T13:25:19.834Z,99753.86
2018-07-13T13:26:55.420Z,99750.07
2018-07-13T13:28:31.188Z,99754.13
2018-07-13T13:30:06.777Z,99751.53
2018-07-13T13:31:42.380Z,99760.32
2018-07-13T13:33:17.960Z,99752.77
2018-07-13T13:34:53.780Z,99753.19
2018-07-13T13:36:29.393Z,99749.56
2018-07-13T13:38:04.988Z,99757.63
2018-07-13T13:39:40.918Z,99755.75
2018-07-13T13:41:16.569Z,99742.56
2018-07-13T13:42:52.289Z,99740.61
2018-07-13T13:44:30.017Z,99743.28
2018-07-13T13:46:13.647Z,99733.78
2018-07-13T13:47:49.249Z,99728.64
2018-07-13T13:49:24.950Z,99723.06
2018-07-13T13:51:00.693Z,99729.17
2018-07-13T13:52:36.317Z,99721.05
2018-07-13T13:54:11.933Z,99724.86
2018-07-13T13:55:48.326Z,99730.80
2018-07-13T13:57:23.894Z,99729.16
2018-07-13T13:58:59.480Z,99727.42
2018-07-13T14:00:35.205Z,99727.57
2018-07-13T14:02:10.786Z,99729.92
2018-07-13T14:03:46.387Z,99731.03
2018-07-13T14:05:22.002Z,99719.34
2018-07-13T14:06:57.639Z,99730.33
2018-07-13T14:08:33.267Z,99727.55
2018-07-13T14:10:08.897Z,99725.31
2018-07-13T14:11:44.487Z,99724.24
2018-07-13T14:13:20.336Z,99720.02
2018-07-13T14:14:55.961Z,99721.06
2018-07-13T14:16:31.544Z,99727.73
2018-07-13T14:18:07.150Z,99712.78
2018-07-13T14:19:42.712Z,99712.91
2018-07-13T14:21:18.418Z,99715.56
2018-07-13T14:22:54.015Z,99724.23
2018-07-13T14:24:29.632Z,99724.98
2018-07-13T14:26:05.398Z,99726.80
2018-07-13T14:27:40.990Z,99729.50
2018-07-13T14:29:16.910Z,99737.23
2018-07-13T14:30:52.545Z,99728.05
2018-07-13T14:32:28.123Z,99719.96
2018-07-13T14:34:03.686Z,99729.72
2018-07-13T14:35:39.349Z,99728.06
2018-07-13T14:37:14.942Z,99724.31
2018-07-13T14:38:50.523Z,99731.12
2018-07-13T14:40:26.083Z,99726.91
2018-07-13T14:42:01.706Z,99718.27
2018-07-13T14:43:37.744Z,99716.64
2018-07-13T14:45:13.328Z,99717.69
2018-07-13T14:46:49.075Z,99723.27
2018-07-13T14:48:24.617Z,99714.02
2018-07-13T14:50:00.215Z,99711.42
2018-07-13T14:51:35.795Z,99712.44
2018-07-13T14:53:11.366Z,99713.32
2018-07-13T14:54:46.961Z,99710.13
2018-07-13T14:56:22.573Z,99709.66
2018-07-13T14:57:58.286Z,99707.41
2018-07-13T14:59:33.902Z,99698.89
2018-07-13T15:01:09.460Z,99693.63
2018-07-13T15:02:45.358Z,99693.12
2018-07-13T15:04:21.001Z,99703.63
2018-07-13T15:05:56.713Z,99707.41
2018-07-13T15:07:32.185Z,99703.91
2018-07-13T15:09:08.034Z,99703.34
2018-07-13T15:10:43.935Z,99698.34
2018-07-13T15:12:19.497Z,99693.33
2018-07-13T15:13:55.335Z,99699.06
2018-07-13T15:15:30.930Z,99703.87
2018-07-13T15:17:06.499Z,99683.90
2018-07-13T15:18:42.209Z,99697.46
2018-07-13T15:20:17.825Z,99699.09
2018-07-13T15:21:53.518Z,99710.83
2018-07-13T15:23:29.103Z,99708.13
2018-07-13T15:25:04.680Z,99701.44
2018-07-13T15:26:40.506Z,99692.81
2018-07-13T15:28:16.070Z,99698.82
2018-07-13T15:29:51.677Z,99708.42
2018-07-13T15:31:27.239Z,99699.17
2018-07-13T15:33:03.159Z,99696.69
2018-07-13T15:34:38.716Z,99704.37
2018-07-13T15:36:14.327Z,99709.39
2018-07-13T15:37:49.932Z,99706.98
2018-07-13T15:39:25.468Z,99697.06
2018-07-13T15:41:01.070Z,99705.06
2018-07-13T15:42:36.627Z,99704.91
2018-07-13T15:44:12.199Z,99705.80
2018-07-13T15:45:47.764Z,99701.47
2018-07-13T15:47:23.537Z,99700.12
2018-07-13T15:48:59.143Z,99699.48
2018-07-13T15:50:34.764Z,99706.55
2018-07-13T15:52:10.400Z,99710.42
2018-07-13T15:53:45.998Z,99699.84
2018-07-13T15:55:21.580Z,99706.17
2018-07-13T15:56:57.126Z,99700.48
2018-07-13T15:58:32.731Z,99703.57
2018-07-13T16:00:08.291Z,99701.39
2018-07-13T16:01:43.892Z,99694.27
2018-07-13T16:03:19.472Z,99696.03
2018-07-13T16:04:55.122Z,99696.44
2018-07-13T16:06:30.751Z,99694.30
2018-07-13T16:08:06.341Z,99693.16
2018-07-13T16:09:41.981Z,99692.27
2018-07-13T16:11:17.532Z,99687.02
2018-07-13T16:12:53.238Z,99683.51
2018-07-13T16:14:29.510Z,99687.59
2018-07-13T16:16:05.360Z,99681.42
2018-07-13T16:17:40.919Z,99685.76
2018-07-13T16:19:16.780Z,99683.94
2018-07-13T16:20:52.569Z,99687.34
2018-07-13T16:22:28.221Z,99678.82
2018-07-13T16:24:03.786Z,99680.30
2018-07-13T16:25:39.659Z,99678.63
2018-07-13T16:27:15.311Z,99687.43
2018-07-13T16:28:50.967Z,99677.38
2018-07-13T16:30:26.595Z,99686.64
2018-07-13T16:32:02.152Z,99698.78
2018-07-13T16:33:40.998Z,99684.67
2018-07-13T16:35:17.282Z,99681.82
2018-07-13T16:36:53.499Z,99687.75
2018-07-13T16:38:29.915Z,99683.25
2018-07-13T16:40:06.055Z,99684.19
2018-07-13T16:41:41.841Z,99679.34
2018-07-13T16:43:17.908Z,99682.87
2018-07-13T16:44:54.555Z,99681.63
2018-07-13T16:46:30.211Z,99680.87
2018-07-13T16:48:05.869Z,99681.98
2018-07-13T16:49:41.477Z,99682.14
2018-07-13T16:51:19.309Z,99680.16
2018-07-13T16:52:56.216Z,99681.66
2018-07-13T16:54:31.817Z,99676.02
2018-07-13T16:56:07.654Z,99677.27
2018-07-13T16:57:43.335Z,99682.03
2018-07-13T16:59:18.953Z,99678.45
2018-07-13T17:00:54.737Z,99678.45
2018-07-13T17:02:30.362Z,99677.19
2018-07-13T17:04:05.957Z,99682.22
2018-07-13T17:05:41.567Z,99686.30
2018-07-13T17:07:17.134Z,99679.67
2018-07-13T17:08:52.761Z,99675.72
2018-07-13T17:10:28.345Z,99675.39
2018-07-13T17:12:03.954Z,99679.13
2018-07-13T17:13:39.575Z,99682.66
2018-07-13T17:15:15.237Z,99681.52
2018-07-13T17:16:50.835Z,99679.73
2018-07-13T17:18:26.404Z,99689.16
2018-07-13T17:20:01.980Z,99683.89
2018-07-13T17:21:37.563Z,99686.66
2018-07-13T17:23:13.353Z,99687.79
2018-07-13T17:24:48.974Z,99689.86
2018-07-13T17:26:24.554Z,99688.52
2018-07-13T17:28:00.144Z,99690.09
2018-07-13T17:29:35.717Z,99689.46
2018-07-13T17:31:11.332Z,99688.95
2018-07-13T17:32:46.893Z,99687.06
2018-07-13T17:34:22.484Z,99686.51
2018-07-13T17:35:58.146Z,99693.11
2018-07-13T17:37:33.729Z,99695.31
2018-07-13T17:39:09.445Z,99692.22
2018-07-13T17:40:45.417Z,99683.02
2018-07-13T17:42:21.105Z,99694.02
2018-07-13T17:43:56.865Z,99689.18
2018-07-13T17:45:32.446Z,99690.08
2018-07-13T17:47:08.312Z,99687.30
2018-07-13T17:48:43.916Z,99687.61
2018-07-13T17:50:19.633Z,99692.43
2018-07-13T17:51:55.418Z,99696.14
2018-07-13T17:53:30.977Z,99690.19
2018-07-13T17:55:06.567Z,99696.81
2018-07-13T17:56:42.148Z,99697.32
2018-07-13T17:58:18.078Z,99700.96
2018-07-13T17:59:53.662Z,99698.95
2018-07-13T18:01:29.448Z,99697.80
2018-07-13T18:03:05.131Z,99705.32
2018-07-13T18:04:40.699Z,99698.19
2018-07-13T18:06:16.287Z,99702.91
2018-07-13T18:07:52.298Z,99703.91
2018-07-13T18:09:28.213Z,99712.72
2018-07-13T18:11:04.122Z,99715.11
2018-07-13T18:12:39.822Z,99712.24
2018-07-13T18:14:15.445Z,99712.01
2018-07-13T18:15:51.133Z,99722.02
2018-07-13T18:17:26.693Z,99721.95
2018-07-13T18:19:02.688Z,99728.38
2018-07-13T18:20:38.366Z,99730.11
2018-07-13T18:22:13.965Z,99722.52
2018-07-13T18:23:49.525Z,99731.35
2018-07-13T18:25:25.106Z,99744.25
2018-07-13T18:27:00.717Z,99734.72
2018-07-13T18:28:36.296Z,99738.50
2018-07-13T18:30:11.892Z,99742.41
2018-07-13T18:31:47.646Z,99745.45
2018-07-13T18:33:23.281Z,99750.37
2018-07-13T18:34:58.893Z,99757.41
2018-07-13T18:36:34.654Z,99748.41
2018-07-13T18:38:10.241Z,99756.84
2018-07-13T18:39:45.813Z,99757.72
2018-07-13T18:41:21.577Z,99763.17
2018-07-13T18:42:57.912Z,99761.70
2018-07-13T18:44:33.816Z,99755.23
2018-07-13T18:46:09.715Z,99762.89
2018-07-13T18:47:45.449Z,99769.59
2018-07-13T18:49:21.028Z,99764.00
2018-07-13T18:50:56.713Z,99774.84
2018-07-13T18:52:32.293Z,99767.02
2018-07-13T18:54:07.950Z,99770.91
2018-07-13T18:55:43.520Z,99775.64
2018-07-13T18:57:19.141Z,99777.45